createdAt,value
2023-05-21T00:01:06.603Z,1.20
2023-05-21T00:03:33.974Z,1.20
2023-05-21T00:06:01.702Z,1.40
2023-05-21T00:08:28.806Z,1.20
2023-05-21T00:10:55.946Z,1.50
2023-05-21T00:13:22.966Z,1.33
2023-05-21T00:15:50.005Z,1.40
2023-05-21T00:18:16.904Z,0.98
2023-05-21T00:20:45.079Z,1.10
2023-05-21T00:23:12.521Z,1.55
2023-05-21T00:25:39.619Z,1.88
2023-05-21T00:28:06.777Z,1.55
2023-05-21T00:30:33.840Z,1.30
2023-05-21T00:33:03.118Z,1.55
2023-05-21T00:35:30.411Z,1.13
2023-05-21T00:37:57.505Z,1.25
2023-05-21T00:40:24.720Z,1.02
2023-05-21T00:42:53.984Z,1.38
2023-05-21T00:45:21.347Z,1.38
2023-05-21T00:47:48.968Z,1.40
2023-05-21T00:50:16.401Z,1.10
2023-05-21T00:52:45.630Z,1.27
2023-05-21T00:55:13.045Z,1.35
2023-05-21T00:57:40.728Z,0.95
2023-05-21T01:00:09.263Z,1.13
2023-05-21T01:02:38.320Z,1.17
2023-05-21T01:05:06.747Z,1.17
2023-05-21T01:07:36.088Z,0.80
2023-05-21T01:10:05.557Z,1.00
2023-05-21T01:12:33.916Z,1.65
2023-05-21T01:15:04.128Z,1.40
2023-05-21T01:17:34.282Z,1.00
2023-05-21T01:20:02.225Z,1.17
2023-05-21T01:22:32.783Z,1.20
2023-05-21T01:25:02.801Z,1.05
2023-05-21T01:27:30.746Z,1.33
2023-05-21T01:29:58.594Z,1.63
2023-05-21T01:32:28.454Z,1.08
2023-05-21T01:35:04.268Z,1.48
2023-05-21T01:37:51.517Z,1.10
2023-05-21T01:40:21.293Z,1.40
2023-05-21T01:42:49.039Z,1.15
2023-05-21T01:45:16.755Z,1.98
2023-05-21T01:47:48.688Z,1.20
2023-05-21T01:50:16.668Z,1.33
2023-05-21T01:52:54.666Z,1.55
2023-05-21T01:55:25.106Z,1.48
2023-05-21T01:57:53.671Z,3.53
2023-05-21T02:00:23.243Z,1.40
2023-05-21T02:02:51.049Z,1.20
2023-05-21T02:05:18.642Z,1.33
2023-05-21T02:07:46.309Z,1.30
2023-05-21T02:10:13.908Z,1.20
2023-05-21T02:12:41.135Z,1.30
2023-05-21T02:15:09.335Z,1.30
2023-05-21T02:17:38.774Z,1.33
2023-05-21T02:20:13.910Z,1.30
2023-05-21T02:22:43.460Z,1.00
2023-05-21T02:25:12.204Z,1.40
2023-05-21T02:27:40.681Z,1.30
2023-05-21T02:30:09.712Z,1.35
2023-05-21T02:32:36.826Z,1.30
2023-05-21T02:35:04.882Z,1.58
2023-05-21T02:37:35.486Z,1.73
2023-05-21T02:40:05.994Z,1.20
2023-05-21T02:42:34.484Z,1.10
2023-05-21T02:45:01.816Z,1.25
2023-05-21T02:47:29.577Z,1.52
2023-05-21T02:50:00.222Z,1.23
2023-05-21T02:52:27.872Z,1.38
2023-05-21T02:54:54.953Z,1.83
2023-05-21T02:57:22.053Z,1.50
2023-05-21T02:59:49.125Z,1.10
2023-05-21T03:02:17.007Z,1.40
2023-05-21T03:04:47.091Z,1.20
2023-05-21T03:07:15.172Z,1.40
2023-05-21T03:09:42.707Z,1.48
2023-05-21T03:12:10.712Z,1.38
2023-05-21T03:14:38.393Z,1.48
2023-05-21T03:17:06.583Z,1.30
2023-05-21T03:19:35.974Z,1.60
2023-05-21T03:22:04.873Z,1.17
2023-05-21T03:24:38.266Z,1.20
2023-05-21T03:27:06.705Z,1.25
2023-05-21T03:29:34.206Z,1.70
2023-05-21T03:32:03.019Z,1.45
2023-05-21T03:34:31.370Z,1.35
2023-05-21T03:36:59.032Z,1.35
2023-05-21T03:39:26.954Z,1.42
2023-05-21T03:41:55.947Z,1.67
2023-05-21T03:47:24.908Z,1.48
2023-05-21T03:49:53.120Z,1.60
2023-05-21T03:52:20.260Z,1.45
2023-05-21T03:54:47.274Z,1.42
2023-05-21T03:57:14.273Z,1.65
2023-05-21T03:59:41.350Z,2.35
2023-05-21T04:02:08.450Z,1.38
2023-05-21T04:04:35.597Z,2.58
2023-05-21T04:07:04.689Z,1.30
2023-05-21T04:09:31.870Z,1.40
2023-05-21T04:11:58.884Z,1.80
2023-05-21T04:14:25.929Z,1.40
2023-05-21T04:16:53.043Z,1.77
2023-05-21T04:19:21.371Z,1.83
2023-05-21T04:21:49.265Z,1.25
2023-05-21T04:24:16.618Z,1.40
2023-05-21T04:27:06.261Z,1.40
2023-05-21T04:29:33.631Z,1.40
2023-05-21T04:32:02.174Z,1.48
2023-05-21T04:34:29.835Z,2.03
2023-05-21T04:36:56.989Z,1.77
2023-05-21T04:39:25.274Z,1.80
2023-05-21T04:41:54.914Z,1.70
2023-05-21T04:44:22.118Z,1.60
2023-05-21T04:46:50.685Z,1.27
2023-05-21T04:49:21.033Z,1.80
2023-05-21T04:51:49.842Z,1.65
2023-05-21T04:54:17.053Z,1.83
2023-05-21T04:56:44.514Z,2.03
2023-05-21T04:59:11.679Z,1.75
2023-05-21T05:01:38.715Z,1.60
2023-05-21T05:04:06.455Z,1.38
2023-05-21T05:06:33.625Z,1.45
2023-05-21T05:09:00.694Z,1.95
2023-05-21T05:11:27.809Z,1.67
2023-05-21T05:13:54.805Z,1.77
2023-05-21T05:16:25.776Z,2.35
2023-05-21T05:18:56.053Z,1.58
2023-05-21T05:21:23.941Z,1.65
2023-05-21T05:23:51.018Z,2.05
2023-05-21T05:26:24.174Z,2.40
2023-05-21T05:28:51.581Z,1.70
2023-05-21T05:31:19.130Z,1.98
2023-05-21T05:33:46.389Z,1.38
2023-05-21T05:36:13.546Z,1.83
2023-05-21T05:38:40.797Z,1.83
2023-05-21T05:41:10.063Z,1.65
2023-05-21T05:43:37.301Z,1.88
2023-05-21T05:46:04.564Z,1.98
2023-05-21T05:48:32.176Z,1.35
2023-05-21T05:50:59.915Z,2.00
2023-05-21T05:53:27.043Z,1.88
2023-05-21T05:55:55.785Z,1.58
2023-05-21T05:58:23.770Z,2.10
2023-05-21T06:01:05.718Z,1.90
2023-05-21T06:03:32.944Z,1.80
2023-05-21T06:06:06.092Z,2.28
2023-05-21T06:08:37.358Z,1.73
2023-05-21T06:11:05.732Z,2.08
2023-05-21T06:13:32.732Z,1.80
2023-05-21T06:15:59.846Z,1.48
2023-05-21T06:18:27.975Z,1.85
2023-05-21T06:20:54.990Z,1.50
2023-05-21T06:23:23.409Z,1.50
2023-05-21T06:25:50.622Z,1.73
2023-05-21T06:28:21.816Z,2.10
2023-05-21T06:30:49.491Z,1.83
2023-05-21T06:33:16.718Z,1.75
2023-05-21T06:35:44.414Z,1.75
2023-05-21T06:38:12.284Z,2.28
2023-05-21T06:40:39.489Z,1.80
2023-05-21T06:43:10.968Z,1.83
2023-05-21T06:45:56.322Z,2.10
2023-05-21T06:48:35.056Z,1.95
2023-05-21T06:51:02.236Z,3.53
2023-05-21T06:53:30.690Z,1.83
2023-05-21T06:55:58.011Z,1.85
2023-05-21T06:58:35.970Z,2.20
2023-05-21T07:01:03.253Z,1.60
2023-05-21T07:03:30.488Z,2.45
2023-05-21T07:05:58.394Z,1.88
2023-05-21T07:08:25.918Z,2.33
2023-05-21T07:10:53.334Z,2.40
2023-05-21T07:13:20.298Z,1.70
2023-05-21T07:15:47.737Z,2.10
2023-05-21T07:18:14.898Z,1.50
2023-05-21T07:20:41.891Z,2.30
2023-05-21T07:23:14.082Z,1.67
2023-05-21T07:25:41.073Z,2.10
2023-05-21T07:28:08.451Z,2.05
2023-05-21T07:30:36.186Z,2.30
2023-05-21T07:33:07.254Z,2.33
2023-05-21T07:35:34.741Z,2.38
2023-05-21T07:38:04.013Z,1.77
2023-05-21T07:40:31.247Z,2.15
2023-05-21T07:42:58.468Z,2.28
2023-05-21T07:45:30.550Z,2.60
2023-05-21T07:47:58.061Z,1.88
2023-05-21T07:50:27.093Z,2.50
2023-05-21T07:52:54.852Z,2.53
2023-05-21T07:55:22.079Z,2.28
2023-05-21T07:57:49.563Z,2.15
2023-05-21T08:00:19.156Z,2.10
2023-05-21T08:02:52.502Z,2.35
2023-05-21T08:05:21.343Z,2.00
2023-05-21T08:07:48.792Z,2.38
2023-05-21T08:10:17.851Z,2.58
2023-05-21T08:12:47.106Z,2.42
2023-05-21T08:15:14.223Z,2.20
2023-05-21T08:17:44.789Z,1.95
2023-05-21T08:20:14.483Z,2.13
2023-05-21T08:22:43.776Z,2.07
2023-05-21T08:25:11.172Z,2.03
2023-05-21T08:27:38.446Z,2.33
2023-05-21T08:30:06.255Z,2.05
2023-05-21T08:32:33.545Z,2.03
2023-05-21T08:35:01.754Z,2.13
2023-05-21T08:37:49.687Z,3.47
2023-05-21T08:40:25.105Z,2.20
2023-05-21T08:42:52.444Z,2.10
2023-05-21T08:45:38.393Z,2.80
2023-05-21T08:48:07.817Z,2.65
2023-05-21T08:50:36.416Z,2.53
2023-05-21T08:53:19.888Z,2.20
2023-05-21T08:55:57.382Z,2.17
2023-05-21T08:58:33.788Z,2.50
2023-05-21T09:01:01.438Z,2.78
2023-05-21T09:03:29.781Z,2.33
2023-05-21T09:05:57.823Z,2.03
2023-05-21T09:11:05.386Z,2.17
2023-05-21T09:13:43.674Z,2.45
2023-05-21T09:16:17.862Z,2.65
2023-05-21T09:18:45.892Z,2.25
2023-05-21T09:21:33.459Z,1.88
2023-05-21T09:24:25.140Z,2.55
2023-05-21T09:26:52.979Z,3.42
2023-05-21T09:29:20.423Z,3.38
2023-05-21T09:31:47.846Z,2.25
2023-05-21T09:34:15.297Z,2.65
2023-05-21T09:36:44.212Z,2.45
2023-05-21T09:39:16.476Z,3.10
2023-05-21T09:41:44.480Z,2.08
2023-05-21T09:44:11.882Z,2.15
2023-05-21T09:46:40.889Z,2.88
2023-05-21T09:49:26.727Z,2.75
2023-05-21T09:52:04.347Z,2.40
2023-05-21T09:54:33.907Z,2.22
2023-05-21T09:57:04.633Z,2.00
2023-05-21T09:59:39.594Z,2.73
2023-05-21T10:02:21.873Z,2.50
2023-05-21T10:04:56.173Z,2.58
2023-05-21T10:07:27.335Z,2.47
2023-05-21T10:09:58.360Z,2.33
2023-05-21T10:12:27.691Z,2.13
2023-05-21T10:15:03.341Z,2.13
2023-05-21T10:17:32.029Z,2.50
2023-05-21T10:20:01.100Z,2.65
2023-05-21T10:22:28.579Z,2.45
2023-05-21T10:24:57.052Z,2.80
2023-05-21T10:27:24.417Z,2.38
2023-05-21T10:29:54.440Z,2.85
2023-05-21T10:32:24.945Z,2.80
2023-05-21T10:34:53.748Z,2.45
2023-05-21T10:37:25.114Z,3.38
2023-05-21T10:39:52.882Z,2.75
2023-05-21T10:42:31.979Z,2.85
2023-05-21T10:45:20.259Z,2.45
2023-05-21T10:48:06.204Z,2.38
2023-05-21T10:50:58.029Z,2.72
2023-05-21T10:54:02.723Z,3.42
2023-05-21T10:56:45.016Z,2.65
2023-05-21T10:59:33.626Z,3.42
2023-05-21T11:02:01.822Z,2.85
2023-05-21T11:04:29.467Z,2.47
2023-05-21T11:06:59.858Z,2.53
2023-05-21T11:09:27.471Z,2.80
2023-05-21T11:11:59.127Z,3.22
2023-05-21T11:17:16.046Z,2.88
2023-05-21T11:19:47.239Z,3.15
2023-05-21T11:22:24.421Z,2.50
2023-05-21T11:24:52.119Z,2.33
2023-05-21T11:27:38.650Z,2.78
2023-05-21T11:30:19.712Z,3.50
2023-05-21T11:33:08.211Z,2.80
2023-05-21T11:35:51.630Z,2.97
2023-05-21T11:38:18.699Z,3.28
2023-05-21T11:40:55.221Z,3.30
2023-05-21T11:43:25.117Z,2.97
2023-05-21T11:45:53.924Z,3.13
2023-05-21T11:48:32.629Z,2.30
2023-05-21T11:51:01.669Z,3.00
2023-05-21T11:53:30.440Z,2.47
2023-05-21T11:55:57.824Z,2.60
2023-05-21T11:58:25.177Z,3.20
2023-05-21T12:00:52.214Z,2.88
2023-05-21T12:03:20.721Z,2.88
2023-05-21T12:05:48.934Z,3.35
2023-05-21T12:08:25.897Z,2.50
2023-05-21T12:11:00.355Z,2.97
2023-05-21T12:13:28.442Z,3.25
2023-05-21T12:15:55.567Z,3.05
2023-05-21T12:18:22.691Z,3.20
2023-05-21T12:20:52.191Z,4.00
2023-05-21T12:23:25.433Z,2.63
2023-05-21T12:25:53.796Z,2.60
2023-05-21T12:28:22.358Z,3.47
2023-05-21T12:30:49.512Z,2.88
2023-05-21T12:33:18.070Z,2.78
2023-05-21T12:35:50.454Z,2.53
2023-05-21T12:38:17.744Z,2.67
2023-05-21T12:40:45.752Z,3.85
2023-05-21T12:43:13.147Z,2.78
2023-05-21T12:45:40.637Z,2.70
2023-05-21T12:48:09.316Z,2.92
2023-05-21T12:50:40.560Z,2.67
2023-05-21T12:53:09.685Z,3.15
2023-05-21T12:55:37.057Z,2.35
2023-05-21T12:58:10.795Z,2.47
2023-05-21T13:00:38.355Z,2.40
2023-05-21T13:03:06.716Z,2.90
2023-05-21T13:05:34.770Z,2.78
2023-05-21T13:08:02.199Z,2.92
2023-05-21T13:10:29.214Z,2.40
2023-05-21T13:12:57.094Z,2.60
2023-05-21T13:15:24.117Z,2.55
2023-05-21T13:17:52.429Z,2.40
2023-05-21T13:20:21.826Z,2.95
2023-05-21T13:22:51.921Z,2.10
2023-05-21T13:25:25.030Z,3.20
2023-05-21T13:27:53.314Z,2.50
2023-05-21T13:30:21.623Z,3.40
2023-05-21T13:32:49.175Z,2.92
2023-05-21T13:35:16.849Z,2.75
2023-05-21T13:37:45.526Z,2.47
2023-05-21T13:40:17.132Z,2.92
2023-05-21T13:45:14.403Z,2.42
2023-05-21T14:25:28.572Z,3.53
2023-05-21T14:27:55.637Z,2.45
2023-05-21T14:30:22.753Z,3.00
2023-05-21T14:32:50.101Z,2.35
2023-05-21T14:35:17.323Z,2.17
2023-05-21T14:37:44.396Z,1.90
2023-05-21T14:40:12.101Z,2.30
2023-05-21T14:42:39.317Z,2.17
2023-05-21T14:45:18.012Z,3.08
2023-05-21T14:47:51.953Z,2.33
2023-05-21T14:50:19.246Z,2.65
2023-05-21T14:52:46.512Z,2.65
2023-05-21T14:55:13.923Z,2.83
2023-05-21T14:57:40.868Z,3.00
2023-05-21T15:00:08.532Z,2.60
2023-05-21T15:02:35.795Z,2.97
2023-05-21T15:05:02.922Z,2.67
2023-05-21T15:07:30.074Z,3.50
2023-05-21T15:09:58.332Z,3.40
2023-05-21T15:12:25.604Z,3.33
2023-05-21T15:14:53.084Z,2.97
2023-05-21T15:17:20.155Z,3.10
2023-05-21T15:19:47.353Z,3.13
2023-05-21T15:22:14.613Z,2.97
2023-05-21T15:24:44.288Z,2.92
2023-05-21T15:27:11.626Z,3.88
2023-05-21T15:29:39.161Z,5.20
2023-05-21T15:32:07.612Z,3.80
2023-05-21T15:34:34.870Z,2.50
2023-05-21T15:37:03.052Z,2.35
2023-05-21T15:39:30.630Z,2.25
2023-05-21T15:41:57.717Z,2.17
2023-05-21T15:44:26.073Z,2.83
2023-05-21T15:46:54.849Z,2.53
2023-05-21T15:49:22.041Z,2.45
2023-05-21T15:51:49.333Z,2.50
2023-05-21T15:54:16.447Z,2.60
2023-05-21T15:56:48.061Z,2.03
2023-05-21T15:59:15.262Z,2.40
2023-05-21T16:01:43.016Z,1.70
2023-05-21T16:04:11.399Z,2.05
2023-05-21T16:06:38.949Z,2.10
2023-05-21T16:09:06.537Z,1.83
2023-05-21T16:11:33.756Z,1.65
2023-05-21T16:14:00.916Z,2.90
2023-05-21T16:16:28.170Z,2.13
2023-05-21T16:18:55.212Z,2.72
2023-05-21T16:21:22.366Z,1.90
2023-05-21T16:23:49.379Z,2.03
2023-05-21T16:26:16.545Z,2.33
2023-05-21T16:28:43.809Z,1.70
2023-05-21T16:31:12.710Z,1.92
2023-05-21T16:33:41.711Z,2.13
2023-05-21T16:36:09.580Z,2.85
2023-05-21T16:38:36.801Z,2.13
2023-05-21T16:41:03.970Z,2.40
2023-05-21T16:43:31.194Z,2.35
2023-05-21T16:45:58.202Z,2.30
2023-05-21T16:48:27.510Z,1.90
2023-05-21T16:50:54.705Z,1.80
2023-05-21T16:53:21.805Z,2.17
2023-05-21T16:55:49.157Z,2.30
2023-05-21T16:58:16.353Z,2.28
2023-05-21T17:00:43.553Z,2.55
2023-05-21T17:03:11.199Z,1.70
2023-05-21T17:05:38.680Z,1.88
2023-05-21T17:08:05.925Z,2.08
2023-05-21T17:10:33.322Z,1.80
2023-05-21T17:13:09.678Z,1.63
2023-05-21T17:15:45.168Z,2.33
2023-05-21T17:18:12.666Z,2.13
2023-05-21T17:20:39.797Z,1.90
2023-05-21T17:23:06.947Z,2.10
2023-05-21T17:25:34.860Z,2.10
2023-05-21T17:28:02.388Z,2.20
2023-05-21T17:30:29.505Z,1.85
2023-05-21T17:32:58.356Z,2.70
2023-05-21T17:35:25.830Z,2.25
2023-05-21T17:37:53.613Z,2.03
2023-05-21T17:40:23.092Z,2.10
2023-05-21T17:42:51.114Z,2.22
2023-05-21T17:45:18.603Z,1.85
2023-05-21T17:47:45.999Z,1.80
2023-05-21T17:50:13.301Z,1.95
2023-05-21T17:52:40.614Z,2.47
2023-05-21T17:55:09.175Z,2.13
2023-05-21T17:57:36.397Z,2.60
2023-05-21T18:00:05.399Z,2.13
2023-05-21T18:02:39.100Z,2.70
2023-05-21T18:05:06.411Z,2.80
2023-05-21T18:07:33.429Z,2.30
2023-05-21T18:10:01.062Z,2.00
2023-05-21T18:12:28.689Z,2.22
2023-05-21T18:14:56.021Z,2.28
2023-05-21T18:17:23.420Z,2.05
2023-05-21T18:19:51.217Z,2.13
2023-05-21T18:22:18.573Z,2.30
2023-05-21T18:24:46.816Z,2.53
2023-05-21T18:27:15.212Z,2.38
2023-05-21T18:29:42.862Z,2.10
2023-05-21T18:32:11.792Z,1.92
2023-05-21T18:34:39.088Z,2.10
2023-05-21T18:37:06.920Z,3.30
2023-05-21T18:39:34.114Z,2.10
2023-05-21T18:42:12.155Z,2.53
2023-05-21T18:44:41.539Z,2.00
2023-05-21T18:47:10.690Z,1.95
2023-05-21T18:49:39.277Z,3.05
2023-05-21T18:52:06.960Z,2.10
2023-05-21T18:54:35.713Z,2.00
2023-05-21T18:57:03.733Z,2.67
2023-05-21T18:59:31.530Z,3.47
2023-05-21T19:02:02.652Z,2.67
2023-05-21T19:04:30.962Z,2.63
2023-05-21T19:06:58.899Z,3.00
2023-05-21T19:09:28.340Z,3.38
2023-05-21T19:11:57.598Z,2.95
2023-05-21T19:14:25.781Z,2.38
2023-05-21T19:16:53.197Z,2.92
2023-05-21T19:19:20.547Z,2.47
2023-05-21T19:21:49.546Z,2.28
2023-05-21T19:24:16.974Z,3.55
2023-05-21T19:26:46.312Z,2.40
2023-05-21T19:29:17.286Z,2.22
2023-05-21T19:31:44.329Z,2.70
2023-05-21T19:34:12.025Z,2.35
2023-05-21T19:36:52.022Z,2.67
2023-05-21T19:39:20.236Z,3.30
2023-05-21T19:41:47.365Z,2.83
2023-05-21T19:44:14.664Z,2.70
2023-05-21T19:46:41.729Z,2.63
2023-05-21T19:49:12.005Z,2.30
2023-05-21T19:51:40.230Z,3.08
2023-05-21T19:54:07.361Z,2.80
2023-05-21T19:56:34.622Z,2.92
2023-05-21T19:59:01.748Z,2.70
2023-05-21T20:01:33.109Z,2.65
2023-05-21T20:04:00.936Z,2.78
2023-05-21T20:06:28.248Z,4.00
2023-05-21T20:08:55.409Z,3.00
2023-05-21T20:11:22.617Z,2.67
2023-05-21T20:13:50.281Z,2.55
2023-05-21T20:16:22.301Z,2.75
2023-05-21T20:18:50.606Z,2.63
2023-05-21T20:21:18.925Z,3.13
2023-05-21T20:23:46.916Z,2.33
2023-05-21T20:26:14.797Z,2.45
2023-05-21T20:28:42.032Z,2.40
2023-05-21T20:31:09.291Z,3.05
2023-05-21T20:33:43.627Z,1.83
2023-05-21T20:36:11.168Z,1.75
2023-05-21T20:38:38.403Z,3.55
2023-05-21T20:41:10.593Z,2.10
2023-05-21T20:43:39.625Z,3.08
2023-05-21T20:46:08.741Z,2.20
2023-05-21T20:48:38.876Z,2.20
2023-05-21T20:51:06.935Z,2.47
2023-05-21T20:53:34.124Z,2.40
2023-05-21T20:56:03.090Z,2.75
2023-05-21T20:58:30.303Z,2.28
2023-05-21T21:00:57.529Z,2.33
2023-05-21T21:03:25.401Z,3.83
2023-05-21T21:05:56.565Z,2.65
2023-05-21T21:08:25.627Z,2.38
2023-05-21T21:10:52.963Z,2.40
2023-05-21T21:13:20.160Z,2.47
2023-05-21T21:15:47.619Z,2.83
2023-05-21T21:18:16.300Z,4.43
2023-05-21T21:20:43.801Z,2.67
2023-05-21T21:23:12.024Z,2.50
2023-05-21T21:25:42.459Z,2.35
2023-05-21T21:28:10.743Z,2.97
2023-05-21T21:30:41.487Z,2.92
2023-05-21T21:33:08.900Z,2.67
2023-05-21T21:35:36.152Z,3.60
2023-05-21T21:38:05.541Z,2.63
2023-05-21T21:40:32.880Z,3.05
2023-05-21T21:43:00.314Z,2.72
2023-05-21T21:45:28.507Z,3.10
2023-05-21T21:47:55.683Z,2.53
2023-05-21T21:50:24.418Z,2.75
2023-05-21T21:52:56.013Z,2.65
2023-05-21T21:57:50.471Z,3.17
2023-05-21T22:00:17.820Z,3.20
2023-05-21T22:02:47.829Z,2.80
2023-05-21T22:05:15.008Z,2.80
2023-05-21T22:07:46.522Z,2.53
2023-05-21T22:10:15.192Z,2.63
2023-05-21T22:12:43.669Z,3.25
2023-05-21T22:15:19.099Z,2.53
2023-05-21T22:17:47.583Z,2.78
2023-05-21T22:20:15.115Z,2.78
2023-05-21T22:22:42.246Z,3.28
2023-05-21T22:25:09.638Z,2.65
2023-05-21T22:27:36.728Z,3.28
2023-05-21T22:30:05.168Z,2.63
2023-05-21T22:32:32.204Z,2.97
2023-05-21T22:34:59.241Z,2.70
2023-05-21T22:37:26.362Z,3.45
2023-05-21T22:39:53.406Z,2.97
2023-05-21T22:42:20.524Z,3.75
2023-05-21T22:44:50.529Z,3.97
2023-05-21T22:47:17.607Z,3.67
2023-05-21T22:49:45.509Z,3.67
2023-05-21T22:52:14.689Z,4.10
2023-05-21T22:54:41.816Z,4.07
2023-05-21T22:57:08.864Z,4.15
2023-05-21T22:59:36.041Z,3.80
2023-05-21T23:02:03.554Z,4.18
2023-05-21T23:04:43.972Z,3.33
2023-05-21T23:07:11.738Z,4.38
2023-05-21T23:09:38.781Z,3.75
2023-05-21T23:12:06.262Z,3.83
2023-05-21T23:14:33.831Z,3.65
2023-05-21T23:17:02.224Z,4.38
2023-05-21T23:19:29.768Z,3.90
2023-05-21T23:21:57.251Z,3.90
2023-05-21T23:24:24.301Z,3.88
2023-05-21T23:26:52.894Z,3.85
2023-05-21T23:29:19.908Z,3.63
2023-05-21T23:31:47.080Z,4.03
2023-05-21T23:34:14.313Z,4.55
2023-05-21T23:36:41.484Z,4.80
2023-05-21T23:39:09.256Z,3.72
2023-05-21T23:41:36.390Z,4.47
2023-05-21T23:44:03.627Z,3.75
2023-05-21T23:46:30.644Z,5.60
2023-05-21T23:48:57.627Z,4.00
2023-05-21T23:51:24.713Z,4.75
2023-05-21T23:53:51.744Z,3.88
2023-05-21T23:56:18.972Z,4.65
2023-05-21T23:58:45.980Z,4.07
